createdAt,value
2022-11-16T00:00:46.402Z,99635.13
2022-11-16T00:04:49.117Z,99638.13
2022-11-16T00:09:14.460Z,99635.94
2022-11-16T00:13:17.263Z,99628.59
2022-11-16T00:17:20.000Z,99627.22
2022-11-16T00:21:22.670Z,99613.59
2022-11-16T00:25:26.746Z,99617.69
2022-11-16T00:29:29.459Z,99615.78
2022-11-16T00:33:32.771Z,99607.63
2022-11-16T00:37:35.692Z,99604.63
2022-11-16T00:41:39.798Z,99593.72
2022-11-16T00:45:43.349Z,99585.31
2022-11-16T00:49:46.130Z,99591.81
2022-11-16T00:53:49.018Z,99582.31
2022-11-16T00:57:53.090Z,99583.94
2022-11-16T01:01:57.697Z,99571.69
2022-11-16T01:06:03.991Z,99570.88
2022-11-16T01:10:10.427Z,99565.44
2022-11-16T01:14:14.456Z,99568.16
2022-11-16T01:18:19.375Z,99569.25
2022-11-16T01:22:22.256Z,99574.97
2022-11-16T01:26:25.378Z,99552.66
2022-11-16T01:30:29.766Z,99560.00
2022-11-16T01:34:39.803Z,99550.75
2022-11-16T01:38:55.733Z,99548.03
2022-11-16T01:43:02.051Z,99544.75
2022-11-16T01:47:10.925Z,99536.59
2022-11-16T01:51:14.653Z,99534.72
2022-11-16T01:55:18.180Z,99528.44
2022-11-16T01:59:47.086Z,99523.78
2022-11-16T02:03:54.975Z,99522.19
2022-11-16T02:08:31.302Z,99524.38
2022-11-16T02:12:51.287Z,99515.66
2022-11-16T02:17:07.695Z,99506.69
2022-11-16T02:21:28.083Z,99506.41
2022-11-16T02:25:39.881Z,99500.97
2022-11-16T02:29:47.043Z,99503.69
2022-11-16T02:33:52.645Z,99495.53
2022-11-16T02:37:58.841Z,99502.06
2022-11-16T02:42:05.414Z,99488.97
2022-11-16T02:46:15.605Z,99489.78
2022-11-16T02:50:23.302Z,99487.66
2022-11-16T02:54:26.302Z,99493.09
2022-11-16T02:58:32.196Z,99482.19
2022-11-16T03:02:45.153Z,99489.78
2022-11-16T03:06:51.322Z,99492.53
2022-11-16T03:11:15.375Z,99500.41
2022-11-16T03:15:19.022Z,99493.59
2022-11-16T03:19:30.412Z,99496.34
2022-11-16T03:23:35.205Z,99493.38
2022-11-16T03:27:41.514Z,99486.53
2022-11-16T03:31:49.454Z,99482.47
2022-11-16T03:36:02.354Z,99479.75
2022-11-16T03:40:10.603Z,99485.72
2022-11-16T03:44:16.288Z,99465.59
2022-11-16T03:48:19.129Z,99471.03
2022-11-16T03:52:23.322Z,99447.63
2022-11-16T03:56:27.074Z,99466.69
2022-11-16T04:00:30.056Z,99462.59
2022-11-16T04:04:50.325Z,99460.97
2022-11-16T04:09:24.623Z,99456.09
2022-11-16T04:13:48.678Z,99454.97
2022-11-16T04:18:09.725Z,99452.53
2022-11-16T04:22:37.599Z,99460.97
2022-11-16T04:27:01.009Z,99458.50
2022-11-16T04:31:23.066Z,99469.66
2022-11-16T04:35:51.157Z,99463.38
2022-11-16T04:39:54.035Z,99455.25
2022-11-16T04:43:59.751Z,99466.41
2022-11-16T04:48:02.973Z,99451.69
2022-11-16T04:52:09.781Z,99463.69
2022-11-16T04:56:14.035Z,99467.75
2022-11-16T05:00:19.854Z,99462.03
2022-11-16T05:04:23.575Z,99466.91
2022-11-16T05:08:27.113Z,99459.56
2022-11-16T05:12:31.873Z,99455.50
2022-11-16T05:16:38.710Z,99450.59
2022-11-16T05:20:58.962Z,99451.44
2022-11-16T05:25:02.981Z,99455.78
2022-11-16T05:29:05.689Z,99458.50
2022-11-16T05:33:09.833Z,99469.94
2022-11-16T05:37:17.477Z,99467.22
2022-11-16T05:41:21.233Z,99472.38
2022-11-16T05:45:24.494Z,99462.56
2022-11-16T05:49:28.793Z,99478.91
2022-11-16T05:53:31.554Z,99472.59
2022-11-16T05:57:34.883Z,99488.38
2022-11-16T06:01:38.451Z,99484.28
2022-11-16T06:05:42.668Z,99484.56
2022-11-16T06:09:48.370Z,99493.53
2022-11-16T06:13:55.670Z,99498.47
2022-11-16T06:17:58.448Z,99502.53
2022-11-16T06:22:02.640Z,99497.88
2022-11-16T06:26:07.601Z,99514.50
2022-11-16T06:30:11.430Z,99519.13
2022-11-16T06:34:15.613Z,99521.84
2022-11-16T06:38:21.037Z,99531.38
2022-11-16T06:42:26.190Z,99538.19
2022-11-16T06:46:30.271Z,99543.34
2022-11-16T06:50:33.654Z,99540.34
2022-11-16T06:54:37.774Z,99543.34
2022-11-16T06:58:42.880Z,99545.78
2022-11-16T07:02:46.985Z,99548.78
2022-11-16T07:06:53.511Z,99547.69
2022-11-16T07:11:04.348Z,99567.59
2022-11-16T07:15:08.314Z,99573.31
2022-11-16T07:19:14.958Z,99571.41
2022-11-16T07:23:18.801Z,99567.59
2022-11-16T07:27:23.138Z,99576.31
2022-11-16T07:31:27.977Z,99582.28
2022-11-16T07:35:49.291Z,99595.09
2022-11-16T07:39:52.459Z,99587.50
2022-11-16T07:43:57.459Z,99609.00
2022-11-16T07:48:07.322Z,99605.75
2022-11-16T07:52:33.298Z,99624.81
2022-11-16T07:56:42.460Z,99633.50
2022-11-16T08:00:47.835Z,99641.41
2022-11-16T08:04:52.015Z,99643.03
2022-11-16T08:09:00.725Z,99646.03
2022-11-16T08:13:05.987Z,99653.38
2022-11-16T08:17:10.091Z,99654.75
2022-11-16T08:21:16.330Z,99650.66
2022-11-16T08:25:20.131Z,99661.28
2022-11-16T08:29:23.264Z,99675.41
2022-11-16T08:33:30.388Z,99673.78
2022-11-16T08:37:34.391Z,99672.44
2022-11-16T08:41:38.538Z,99680.34
2022-11-16T08:45:48.550Z,99686.63
2022-11-16T08:49:52.863Z,99695.88
2022-11-16T08:53:58.125Z,99691.50
2022-11-16T08:58:01.912Z,99701.31
2022-11-16T09:02:06.171Z,99695.88
2022-11-16T09:06:11.887Z,99697.78
2022-11-16T09:10:14.606Z,99696.44
2022-11-16T09:14:17.351Z,99698.84
2022-11-16T09:18:20.090Z,99702.94
2022-11-16T09:22:24.327Z,99699.94
2022-11-16T09:26:27.314Z,99702.66
2022-11-16T09:30:30.055Z,99713.81
2022-11-16T09:34:35.035Z,99712.72
2022-11-16T09:43:16.175Z,99719.56
2022-11-16T09:47:21.973Z,99733.44
2022-11-16T09:51:26.806Z,99738.09
2022-11-16T09:55:37.764Z,99745.16
2022-11-16T09:59:45.142Z,99737.81
2022-11-16T10:03:52.099Z,99749.53
2022-11-16T10:08:04.239Z,99747.91
2022-11-16T10:12:23.575Z,99747.88
2022-11-16T10:16:34.310Z,99752.22
2022-11-16T10:21:02.062Z,99746.75
2022-11-16T10:25:12.870Z,99746.47
2022-11-16T10:29:27.309Z,99744.03
2022-11-16T10:33:36.240Z,99746.47
2022-11-16T10:37:45.105Z,99749.50
2022-11-16T10:41:50.784Z,99748.97
2022-11-16T10:45:59.955Z,99750.88
2022-11-16T10:50:25.595Z,99737.78
2022-11-16T10:54:28.671Z,99744.31
2022-11-16T10:58:57.730Z,99734.25
2022-11-16T11:03:02.213Z,99723.91
2022-11-16T11:07:24.686Z,99733.16
2022-11-16T11:11:45.277Z,99731.25
2022-11-16T11:15:51.173Z,99725.81
2022-11-16T11:20:00.737Z,99732.34
2022-11-16T11:24:37.374Z,99734.81
2022-11-16T11:28:31.769Z,99725.25
2022-11-16T11:32:40.699Z,99728.75
2022-11-16T11:36:49.305Z,99716.72
2022-11-16T11:40:58.798Z,99715.91
2022-11-16T11:45:06.690Z,99712.06
2022-11-16T11:49:15.514Z,99714.81
2022-11-16T11:53:36.043Z,99709.09
2022-11-16T11:57:44.892Z,99701.19
2022-11-16T12:02:06.421Z,99692.72
2022-11-16T12:06:18.773Z,99685.66
2022-11-16T12:10:32.715Z,99688.66
2022-11-16T12:14:50.324Z,99690.81
2022-11-16T12:19:04.850Z,99687.00
2022-11-16T12:23:39.609Z,99672.88
2022-11-16T12:27:53.222Z,99684.31
2022-11-16T12:32:14.616Z,99675.53
2022-11-16T12:36:30.237Z,99672.28
2022-11-16T12:40:46.323Z,99674.19
2022-11-16T12:45:14.317Z,99673.91
2022-11-16T12:49:44.547Z,99667.66
2022-11-16T12:54:05.067Z,99669.31
2022-11-16T12:58:18.590Z,99670.38
2022-11-16T13:02:34.529Z,99666.31
2022-11-16T13:06:44.070Z,99665.75
2022-11-16T13:10:50.168Z,99665.72
2022-11-16T13:14:57.191Z,99666.28
2022-11-16T13:19:03.942Z,99670.66
2022-11-16T13:23:13.133Z,99671.72
2022-11-16T13:27:32.008Z,99661.59
2022-11-16T13:31:39.509Z,99669.50
2022-11-16T13:35:43.877Z,99668.97
2022-11-16T13:40:20.626Z,99661.81
2022-11-16T13:44:30.469Z,99666.44
2022-11-16T13:48:37.589Z,99663.44
2022-11-16T13:53:40.942Z,99654.94
2022-11-16T13:57:26.593Z,99649.50
2022-11-16T14:01:58.242Z,99647.03
2022-11-16T14:06:00.954Z,99643.78
2022-11-16T14:10:07.925Z,99645.72
2022-11-16T14:14:12.558Z,99641.09
2022-11-16T14:18:37.109Z,99648.47
2022-11-16T14:23:01.991Z,99639.00
2022-11-16T14:27:16.548Z,99641.50
2022-11-16T14:31:25.436Z,99638.78
2022-11-16T14:35:33.787Z,99629.81
2022-11-16T14:39:41.019Z,99623.84
2022-11-16T14:43:51.321Z,99626.84
2022-11-16T14:48:01.600Z,99624.97
2022-11-16T14:52:08.211Z,99611.91
2022-11-16T14:56:14.087Z,99599.16
2022-11-16T15:00:24.866Z,99600.25
2022-11-16T15:04:28.387Z,99610.31
2022-11-16T15:08:34.619Z,99621.22
2022-11-16T15:12:44.058Z,99626.41
2022-11-16T15:16:54.358Z,99614.72
2022-11-16T15:20:58.300Z,99607.09
2022-11-16T15:25:03.559Z,99595.94
2022-11-16T15:29:07.121Z,99605.47
2022-11-16T15:33:16.707Z,99598.16
2022-11-16T15:37:28.854Z,99602.22
2022-11-16T15:41:31.840Z,99600.31
2022-11-16T15:45:35.916Z,99603.81
2022-11-16T15:49:42.307Z,99594.56
2022-11-16T15:53:48.182Z,99574.44
2022-11-16T15:58:05.692Z,99592.09
2022-11-16T16:02:19.300Z,99590.16
2022-11-16T16:06:45.289Z,99581.97
2022-11-16T16:11:02.424Z,99572.72
2022-11-16T16:15:24.342Z,99580.59
2022-11-16T16:19:39.217Z,99572.94
2022-11-16T16:23:47.726Z,99565.81
2022-11-16T16:27:51.126Z,99570.94
2022-11-16T16:31:54.584Z,99565.47
2022-11-16T16:35:57.628Z,99570.06
2022-11-16T16:40:02.198Z,99572.19
2022-11-16T16:44:06.822Z,99570.25
2022-11-16T16:48:11.590Z,99557.97
2022-11-16T16:52:14.791Z,99548.69
2022-11-16T16:56:20.051Z,99542.41
2022-11-16T17:00:23.591Z,99546.72
2022-11-16T17:04:26.975Z,99555.63
2022-11-16T17:08:34.603Z,99539.06
2022-11-16T17:12:38.882Z,99533.34
2022-11-16T17:16:42.126Z,99536.00
2022-11-16T17:20:45.553Z,99541.16
2022-11-16T17:24:48.702Z,99530.53
2022-11-16T17:28:57.344Z,99525.88
2022-11-16T17:33:00.413Z,99505.53
2022-11-16T17:37:03.299Z,99525.00
2022-11-16T17:41:07.479Z,99510.91
2022-11-16T17:45:12.163Z,99515.78
2022-11-16T17:49:15.562Z,99505.19
2022-11-16T17:53:18.608Z,99505.44
2022-11-16T17:57:21.505Z,99508.41
2022-11-16T18:01:27.171Z,99507.31
2022-11-16T18:05:30.822Z,99501.03
2022-11-16T18:09:33.615Z,99499.91
2022-11-16T18:13:37.284Z,99495.03
2022-11-16T18:17:41.582Z,99503.66
2022-11-16T18:21:44.977Z,99493.84
2022-11-16T18:25:47.739Z,99487.59
2022-11-16T18:29:50.483Z,99490.84
2022-11-16T18:33:57.490Z,99493.81
2022-11-16T18:38:01.979Z,99494.88
2022-11-16T18:42:04.971Z,99489.72
2022-11-16T18:46:08.013Z,99485.38
2022-11-16T18:50:18.956Z,99472.91
2022-11-16T18:54:22.907Z,99468.31
2022-11-16T18:58:49.209Z,99471.28
2022-11-16T19:02:48.601Z,99465.03
2022-11-16T19:06:52.740Z,99449.06
2022-11-16T19:10:56.093Z,99450.75
2022-11-16T19:14:58.839Z,99444.81
2022-11-16T19:19:02.468Z,99440.25
2022-11-16T19:23:07.415Z,99432.16
2022-11-16T19:27:10.501Z,99438.66
2022-11-16T19:31:14.923Z,99444.63
2022-11-16T19:35:17.807Z,99460.13
2022-11-16T19:39:21.886Z,99454.16
2022-11-16T19:43:24.691Z,99450.13
2022-11-16T19:47:27.390Z,99425.19
2022-11-16T19:51:31.431Z,99421.97
2022-11-16T19:55:35.475Z,99416.56
2022-11-16T19:59:38.274Z,99420.34
2022-11-16T20:03:41.866Z,99418.44
2022-11-16T20:07:44.614Z,99413.81
2022-11-16T20:11:48.547Z,99405.69
2022-11-16T20:15:51.133Z,99390.75
2022-11-16T20:19:53.770Z,99381.50
2022-11-16T20:24:03.112Z,99367.09
2022-11-16T20:28:10.225Z,99355.66
2022-11-16T20:32:13.081Z,99353.75
2022-11-16T20:36:15.674Z,99354.28
2022-11-16T20:40:18.272Z,99356.69
2022-11-16T20:44:22.526Z,99335.28
2022-11-16T20:48:25.349Z,99344.78
2022-11-16T20:52:27.934Z,99344.22
2022-11-16T20:56:30.926Z,99349.88
2022-11-16T21:00:34.995Z,99347.16
2022-11-16T21:04:37.797Z,99334.16
2022-11-16T21:08:41.486Z,99319.53
2022-11-16T21:13:01.980Z,99312.22
2022-11-16T21:17:06.132Z,99310.31
2022-11-16T21:21:10.987Z,99312.75
2022-11-16T21:25:13.690Z,99306.28
2022-11-16T21:29:16.350Z,99302.72
2022-11-16T21:33:20.373Z,99295.69
2022-11-16T21:37:23.074Z,99287.28
2022-11-16T21:41:26.696Z,99298.66
2022-11-16T21:45:29.425Z,99291.34
2022-11-16T21:49:33.484Z,99275.63
2022-11-16T21:53:36.869Z,99268.88
2022-11-16T21:57:39.899Z,99269.69
2022-11-16T22:02:00.789Z,99262.09
2022-11-16T22:06:25.050Z,99248.81
2022-11-16T22:10:28.401Z,99239.88
2022-11-16T22:14:31.111Z,99231.47
2022-11-16T22:18:34.326Z,99233.94
2022-11-16T22:22:38.413Z,99225.56
2022-11-16T22:26:41.378Z,99207.41
2022-11-16T22:30:47.436Z,99198.19
2022-11-16T22:34:54.082Z,99188.16
2022-11-16T22:38:58.142Z,99179.75
2022-11-16T22:43:00.890Z,99163.78
2022-11-16T22:47:03.739Z,99158.38
2022-11-16T22:51:08.269Z,99149.72
2022-11-16T22:55:12.507Z,99138.34
2022-11-16T22:59:15.228Z,99130.22
2022-11-16T23:03:17.990Z,99122.66
2022-11-16T23:07:20.865Z,99113.69
2022-11-16T23:11:43.813Z,99111.00
2022-11-16T23:15:52.282Z,99099.91
2022-11-16T23:20:17.432Z,99098.28
2022-11-16T23:24:38.372Z,99086.38
2022-11-16T23:28:42.427Z,99067.41
2022-11-16T23:32:45.214Z,99054.91
2022-11-16T23:36:47.902Z,99045.44
2022-11-16T23:40:50.583Z,99029.16
2022-11-16T23:44:54.612Z,99018.03
2022-11-16T23:48:57.674Z,99007.72
2022-11-16T23:53:00.614Z,98997.69
2022-11-16T23:57:03.394Z,98990.38
